sensor_id;sensor_type;location;lat;lon;timestamp;P1;durP1;ratioP1;P2;durP2;ratioP2
65753;SDS011;69207;47.502;18.940;2023-07-24T00:00:09;5.95;;;3.97;;
65753;SDS011;69207;47.502;18.940;2023-07-24T00:01:13;6.43;;;4.10;;
65753;SDS011;69207;47.502;18.940;2023-07-24T00:02:16;6.97;;;3.83;;
65753;SDS011;69207;47.502;18.940;2023-07-24T00:03:18;7.55;;;4.00;;
65753;SDS011;69207;47.502;18.940;2023-07-24T00:04:21;4.80;;;3.70;;
65753;SDS011;69207;47.502;18.940;2023-07-24T00:05:24;4.75;;;3.72;;
65753;SDS011;69207;47.502;18.940;2023-07-24T00:06:27;5.82;;;3.75;;
65753;SDS011;69207;47.502;18.940;2023-07-24T00:07:30;5.10;;;3.85;;
65753;SDS011;69207;47.502;18.940;2023-07-24T00:08:33;6.22;;;4.12;;
65753;SDS011;69207;47.502;18.940;2023-07-24T00:09:35;7.12;;;4.35;;
65753;SDS011;69207;47.502;18.940;2023-07-24T00:10:38;5.37;;;3.70;;
65753;SDS011;69207;47.502;18.940;2023-07-24T00:11:41;4.30;;;3.50;;
65753;SDS011;69207;47.502;18.940;2023-07-24T00:12:44;6.40;;;3.92;;
65753;SDS011;69207;47.502;18.940;2023-07-24T00:13:47;5.15;;;3.97;;
65753;SDS011;69207;47.502;18.940;2023-07-24T00:14:51;6.80;;;4.00;;
65753;SDS011;69207;47.502;18.940;2023-07-24T00:15:55;6.18;;;4.05;;
65753;SDS011;69207;47.502;18.940;2023-07-24T00:16:57;6.60;;;3.67;;
65753;SDS011;69207;47.502;18.940;2023-07-24T00:18:00;4.25;;;3.50;;
65753;SDS011;69207;47.502;18.940;2023-07-24T00:19:03;5.37;;;4.03;;
65753;SDS011;69207;47.502;18.940;2023-07-24T00:20:06;5.10;;;3.70;;
65753;SDS011;69207;47.502;18.940;2023-07-24T00:21:09;5.80;;;4.18;;
65753;SDS011;69207;47.502;18.940;2023-07-24T00:22:13;4.53;;;3.55;;
65753;SDS011;69207;47.502;18.940;2023-07-24T00:23:16;5.70;;;3.97;;
65753;SDS011;69207;47.502;18.940;2023-07-24T00:24:19;5.10;;;3.95;;
65753;SDS011;69207;47.502;18.940;2023-07-24T00:25:21;6.07;;;3.67;;
65753;SDS011;69207;47.502;18.940;2023-07-24T00:26:24;5.97;;;3.92;;
65753;SDS011;69207;47.502;18.940;2023-07-24T00:27:27;5.47;;;3.85;;
65753;SDS011;69207;47.502;18.940;2023-07-24T00:28:30;7.22;;;3.97;;
65753;SDS011;69207;47.502;18.940;2023-07-24T00:29:33;4.50;;;3.90;;
65753;SDS011;69207;47.502;18.940;2023-07-24T00:30:35;7.03;;;4.15;;
65753;SDS011;69207;47.502;18.940;2023-07-24T00:31:38;6.78;;;3.45;;
65753;SDS011;69207;47.502;18.940;2023-07-24T00:32:41;4.57;;;3.35;;
65753;SDS011;69207;47.502;18.940;2023-07-24T00:33:44;4.95;;;3.50;;
65753;SDS011;69207;47.502;18.940;2023-07-24T00:34:46;5.97;;;3.62;;
65753;SDS011;69207;47.502;18.940;2023-07-24T00:35:49;6.62;;;3.65;;
65753;SDS011;69207;47.502;18.940;2023-07-24T00:36:52;5.43;;;3.58;;
65753;SDS011;69207;47.502;18.940;2023-07-24T00:37:55;4.78;;;3.78;;
65753;SDS011;69207;47.502;18.940;2023-07-24T00:38:58;4.05;;;3.65;;
65753;SDS011;69207;47.502;18.940;2023-07-24T00:40:01;5.07;;;3.83;;
65753;SDS011;69207;47.502;18.940;2023-07-24T00:41:05;5.62;;;3.65;;
65753;SDS011;69207;47.502;18.940;2023-07-24T00:42:08;5.82;;;4.03;;
65753;SDS011;69207;47.502;18.940;2023-07-24T00:43:10;4.85;;;4.00;;
65753;SDS011;69207;47.502;18.940;2023-07-24T00:44:13;4.78;;;3.78;;
65753;SDS011;69207;47.502;18.940;2023-07-24T00:45:16;5.90;;;4.00;;
65753;SDS011;69207;47.502;18.940;2023-07-24T00:46:19;4.50;;;3.65;;
65753;SDS011;69207;47.502;18.940;2023-07-24T00:47:22;6.70;;;3.95;;
65753;SDS011;69207;47.502;18.940;2023-07-24T00:48:25;7.90;;;3.92;;
65753;SDS011;69207;47.502;18.940;2023-07-24T00:49:29;6.03;;;4.10;;
65753;SDS011;69207;47.502;18.940;2023-07-24T00:50:32;4.90;;;3.90;;
65753;SDS011;69207;47.502;18.940;2023-07-24T00:51:34;8.60;;;3.90;;
65753;SDS011;69207;47.502;18.940;2023-07-24T00:52:37;6.53;;;3.72;;
65753;SDS011;69207;47.502;18.940;2023-07-24T00:53:40;4.72;;;3.90;;
65753;SDS011;69207;47.502;18.940;2023-07-24T00:54:43;4.65;;;3.70;;
65753;SDS011;69207;47.502;18.940;2023-07-24T00:55:47;5.37;;;3.60;;
65753;SDS011;69207;47.502;18.940;2023-07-24T00:56:50;4.95;;;3.37;;
65753;SDS011;69207;47.502;18.940;2023-07-24T00:57:53;5.32;;;3.60;;
65753;SDS011;69207;47.502;18.940;2023-07-24T00:58:56;5.85;;;3.90;;
65753;SDS011;69207;47.502;18.940;2023-07-24T00:59:59;5.53;;;4.22;;
65753;SDS011;69207;47.502;18.940;2023-07-24T01:01:02;6.62;;;4.03;;
65753;SDS011;69207;47.502;18.940;2023-07-24T01:02:06;5.20;;;4.03;;
65753;SDS011;69207;47.502;18.940;2023-07-24T01:03:08;4.53;;;3.60;;
65753;SDS011;69207;47.502;18.940;2023-07-24T01:04:11;5.40;;;3.90;;
65753;SDS011;69207;47.502;18.940;2023-07-24T01:05:15;5.07;;;3.90;;
65753;SDS011;69207;47.502;18.940;2023-07-24T01:06:19;6.80;;;4.03;;
65753;SDS011;69207;47.502;18.940;2023-07-24T01:07:22;5.85;;;4.30;;
65753;SDS011;69207;47.502;18.940;2023-07-24T01:08:25;4.97;;;3.75;;
65753;SDS011;69207;47.502;18.940;2023-07-24T01:09:28;5.95;;;3.62;;
65753;SDS011;69207;47.502;18.940;2023-07-24T01:10:31;4.80;;;3.65;;
65753;SDS011;69207;47.502;18.940;2023-07-24T01:11:39;5.82;;;4.30;;
65753;SDS011;69207;47.502;18.940;2023-07-24T01:12:59;5.25;;;3.92;;
65753;SDS011;69207;47.502;18.940;2023-07-24T01:14:16;5.43;;;4.18;;
65753;SDS011;69207;47.502;18.940;2023-07-24T01:16:47;7.20;;;3.65;;
65753;SDS011;69207;47.502;18.940;2023-07-24T01:18:03;8.50;;;4.47;;
65753;SDS011;69207;47.502;18.940;2023-07-24T01:20:32;5.37;;;3.95;;
65753;SDS011;69207;47.502;18.940;2023-07-24T01:26:25;7.45;;;4.30;;
65753;SDS011;69207;47.502;18.940;2023-07-24T01:27:29;7.60;;;4.57;;
65753;SDS011;69207;47.502;18.940;2023-07-24T01:28:32;5.25;;;4.22;;
65753;SDS011;69207;47.502;18.940;2023-07-24T01:29:35;6.50;;;3.85;;
65753;SDS011;69207;47.502;18.940;2023-07-24T01:30:38;5.68;;;3.65;;
65753;SDS011;69207;47.502;18.940;2023-07-24T01:31:41;6.32;;;3.70;;
65753;SDS011;69207;47.502;18.940;2023-07-24T01:32:43;6.05;;;4.22;;
65753;SDS011;69207;47.502;18.940;2023-07-24T01:33:47;5.03;;;4.18;;
65753;SDS011;69207;47.502;18.940;2023-07-24T01:34:50;5.65;;;4.10;;
65753;SDS011;69207;47.502;18.940;2023-07-24T01:35:55;7.05;;;4.18;;
65753;SDS011;69207;47.502;18.940;2023-07-24T01:37:01;5.65;;;4.05;;
65753;SDS011;69207;47.502;18.940;2023-07-24T01:38:04;6.53;;;3.78;;
65753;SDS011;69207;47.502;18.940;2023-07-24T01:39:07;6.03;;;4.50;;
65753;SDS011;69207;47.502;18.940;2023-07-24T01:40:11;6.95;;;3.90;;
65753;SDS011;69207;47.502;18.940;2023-07-24T01:41:16;6.30;;;4.30;;
65753;SDS011;69207;47.502;18.940;2023-07-24T01:42:19;4.97;;;3.95;;
65753;SDS011;69207;47.502;18.940;2023-07-24T01:43:22;5.85;;;4.10;;
65753;SDS011;69207;47.502;18.940;2023-07-24T01:44:29;5.97;;;3.78;;
65753;SDS011;69207;47.502;18.940;2023-07-24T01:45:32;8.32;;;4.40;;
65753;SDS011;69207;47.502;18.940;2023-07-24T01:46:35;7.12;;;4.55;;
65753;SDS011;69207;47.502;18.940;2023-07-24T01:47:38;8.07;;;4.55;;
65753;SDS011;69207;47.502;18.940;2023-07-24T01:48:41;5.97;;;3.83;;
65753;SDS011;69207;47.502;18.940;2023-07-24T01:49:44;6.43;;;3.95;;
65753;SDS011;69207;47.502;18.940;2023-07-24T01:50:47;6.55;;;4.03;;
65753;SDS011;69207;47.502;18.940;2023-07-24T01:51:50;5.55;;;3.92;;
65753;SDS011;69207;47.502;18.940;2023-07-24T01:52:53;6.43;;;4.18;;
65753;SDS011;69207;47.502;18.940;2023-07-24T01:53:55;7.50;;;4.55;;
65753;SDS011;69207;47.502;18.940;2023-07-24T01:54:58;5.53;;;4.53;;
65753;SDS011;69207;47.502;18.940;2023-07-24T01:56:01;6.70;;;4.10;;
65753;SDS011;69207;47.502;18.940;2023-07-24T01:57:03;6.87;;;4.47;;
65753;SDS011;69207;47.502;18.940;2023-07-24T01:58:07;6.30;;;4.10;;
65753;SDS011;69207;47.502;18.940;2023-07-24T01:59:10;5.75;;;4.43;;
65753;SDS011;69207;47.502;18.940;2023-07-24T02:00:13;6.00;;;4.12;;
65753;SDS011;69207;47.502;18.940;2023-07-24T02:01:16;7.50;;;4.43;;
65753;SDS011;69207;47.502;18.940;2023-07-24T02:02:18;7.07;;;4.12;;
65753;SDS011;69207;47.502;18.940;2023-07-24T02:03:21;5.70;;;4.22;;
65753;SDS011;69207;47.502;18.940;2023-07-24T02:04:24;7.15;;;3.97;;
65753;SDS011;69207;47.502;18.940;2023-07-24T02:05:27;6.78;;;4.30;;
65753;SDS011;69207;47.502;18.940;2023-07-24T02:06:30;4.78;;;3.70;;
65753;SDS011;69207;47.502;18.940;2023-07-24T02:07:33;6.57;;;3.72;;
65753;SDS011;69207;47.502;18.940;2023-07-24T02:08:36;4.87;;;4.18;;
65753;SDS011;69207;47.502;18.940;2023-07-24T02:09:38;6.97;;;4.03;;
65753;SDS011;69207;47.502;18.940;2023-07-24T02:10:41;6.93;;;3.87;;
65753;SDS011;69207;47.502;18.940;2023-07-24T02:11:44;4.70;;;3.72;;
65753;SDS011;69207;47.502;18.940;2023-07-24T02:12:47;8.75;;;4.60;;
65753;SDS011;69207;47.502;18.940;2023-07-24T02:13:50;5.93;;;4.22;;
65753;SDS011;69207;47.502;18.940;2023-07-24T02:14:52;5.22;;;4.30;;
65753;SDS011;69207;47.502;18.940;2023-07-24T02:15:57;5.18;;;3.95;;
65753;SDS011;69207;47.502;18.940;2023-07-24T02:16:59;5.72;;;4.07;;
65753;SDS011;69207;47.502;18.940;2023-07-24T02:18:02;6.62;;;4.37;;
65753;SDS011;69207;47.502;18.940;2023-07-24T02:19:05;5.68;;;4.35;;
65753;SDS011;69207;47.502;18.940;2023-07-24T02:20:08;5.18;;;4.18;;
65753;SDS011;69207;47.502;18.940;2023-07-24T02:21:11;5.85;;;4.12;;
65753;SDS011;69207;47.502;18.940;2023-07-24T02:22:15;5.95;;;4.35;;
65753;SDS011;69207;47.502;18.940;2023-07-24T02:23:17;6.55;;;4.28;;
65753;SDS011;69207;47.502;18.940;2023-07-24T02:24:20;6.10;;;4.72;;
65753;SDS011;69207;47.502;18.940;2023-07-24T02:25:23;7.20;;;4.30;;
65753;SDS011;69207;47.502;18.940;2023-07-24T02:26:26;5.20;;;4.05;;
65753;SDS011;69207;47.502;18.940;2023-07-24T02:27:30;4.95;;;3.78;;
65753;SDS011;69207;47.502;18.940;2023-07-24T02:28:36;7.22;;;4.10;;
65753;SDS011;69207;47.502;18.940;2023-07-24T02:29:39;5.10;;;4.10;;
65753;SDS011;69207;47.502;18.940;2023-07-24T02:30:42;7.32;;;4.47;;
65753;SDS011;69207;47.502;18.940;2023-07-24T02:31:44;8.32;;;4.28;;
65753;SDS011;69207;47.502;18.940;2023-07-24T02:32:47;6.80;;;3.85;;
65753;SDS011;69207;47.502;18.940;2023-07-24T02:33:50;6.25;;;4.12;;
65753;SDS011;69207;47.502;18.940;2023-07-24T02:34:53;8.85;;;4.35;;
65753;SDS011;69207;47.502;18.940;2023-07-24T02:35:56;6.15;;;4.55;;
65753;SDS011;69207;47.502;18.940;2023-07-24T02:36:59;5.45;;;4.03;;
65753;SDS011;69207;47.502;18.940;2023-07-24T02:38:02;7.32;;;4.65;;
65753;SDS011;69207;47.502;18.940;2023-07-24T02:39:04;5.37;;;4.15;;
65753;SDS011;69207;47.502;18.940;2023-07-24T02:40:07;5.35;;;4.18;;
65753;SDS011;69207;47.502;18.940;2023-07-24T02:41:10;6.35;;;4.22;;
65753;SDS011;69207;47.502;18.940;2023-07-24T02:42:13;6.87;;;4.50;;
65753;SDS011;69207;47.502;18.940;2023-07-24T02:43:16;6.82;;;4.35;;
65753;SDS011;69207;47.502;18.940;2023-07-24T02:44:19;5.62;;;3.42;;
65753;SDS011;69207;47.502;18.940;2023-07-24T02:45:21;7.18;;;4.37;;
65753;SDS011;69207;47.502;18.940;2023-07-24T02:46:24;5.40;;;4.22;;
65753;SDS011;69207;47.502;18.940;2023-07-24T02:47:27;5.78;;;3.85;;
65753;SDS011;69207;47.502;18.940;2023-07-24T02:48:30;8.18;;;4.10;;
65753;SDS011;69207;47.502;18.940;2023-07-24T02:49:33;6.12;;;3.95;;
65753;SDS011;69207;47.502;18.940;2023-07-24T02:50:36;6.40;;;3.90;;
65753;SDS011;69207;47.502;18.940;2023-07-24T02:51:38;10.88;;;4.25;;
65753;SDS011;69207;47.502;18.940;2023-07-24T02:52:41;6.93;;;4.18;;
65753;SDS011;69207;47.502;18.940;2023-07-24T02:53:44;7.40;;;4.35;;
65753;SDS011;69207;47.502;18.940;2023-07-24T02:54:46;5.97;;;4.30;;
65753;SDS011;69207;47.502;18.940;2023-07-24T02:55:49;6.28;;;4.35;;
65753;SDS011;69207;47.502;18.940;2023-07-24T02:56:52;5.32;;;3.87;;
65753;SDS011;69207;47.502;18.940;2023-07-24T02:57:55;7.85;;;4.65;;
65753;SDS011;69207;47.502;18.940;2023-07-24T02:58:58;6.87;;;3.87;;
65753;SDS011;69207;47.502;18.940;2023-07-24T03:00:01;6.57;;;4.47;;
65753;SDS011;69207;47.502;18.940;2023-07-24T03:01:04;7.37;;;4.50;;
65753;SDS011;69207;47.502;18.940;2023-07-24T03:02:11;7.43;;;4.75;;
65753;SDS011;69207;47.502;18.940;2023-07-24T03:03:13;7.25;;;4.15;;
65753;SDS011;69207;47.502;18.940;2023-07-24T03:04:17;7.65;;;4.15;;
65753;SDS011;69207;47.502;18.940;2023-07-24T03:05:19;5.53;;;4.45;;
65753;SDS011;69207;47.502;18.940;2023-07-24T03:06:22;7.68;;;4.82;;
65753;SDS011;69207;47.502;18.940;2023-07-24T03:07:25;6.53;;;4.50;;
65753;SDS011;69207;47.502;18.940;2023-07-24T03:08:28;6.97;;;4.20;;
65753;SDS011;69207;47.502;18.940;2023-07-24T03:09:30;6.25;;;4.10;;
65753;SDS011;69207;47.502;18.940;2023-07-24T03:10:33;6.57;;;4.40;;
65753;SDS011;69207;47.502;18.940;2023-07-24T03:11:36;7.97;;;4.35;;
65753;SDS011;69207;47.502;18.940;2023-07-24T03:12:39;5.82;;;4.00;;
65753;SDS011;69207;47.502;18.940;2023-07-24T03:13:42;5.43;;;4.37;;
65753;SDS011;69207;47.502;18.940;2023-07-24T03:14:46;7.70;;;4.87;;
65753;SDS011;69207;47.502;18.940;2023-07-24T03:15:56;7.72;;;4.03;;
65753;SDS011;69207;47.502;18.940;2023-07-24T03:16:59;7.10;;;4.40;;
65753;SDS011;69207;47.502;18.940;2023-07-24T03:18:05;8.35;;;4.80;;
65753;SDS011;69207;47.502;18.940;2023-07-24T03:19:07;8.18;;;4.57;;
65753;SDS011;69207;47.502;18.940;2023-07-24T03:20:14;6.72;;;4.45;;
65753;SDS011;69207;47.502;18.940;2023-07-24T03:21:19;7.60;;;4.20;;
65753;SDS011;69207;47.502;18.940;2023-07-24T03:22:22;7.65;;;4.62;;
65753;SDS011;69207;47.502;18.940;2023-07-24T03:23:25;5.18;;;4.32;;
65753;SDS011;69207;47.502;18.940;2023-07-24T03:24:28;6.57;;;4.80;;
65753;SDS011;69207;47.502;18.940;2023-07-24T03:25:31;6.68;;;4.30;;
65753;SDS011;69207;47.502;18.940;2023-07-24T03:26:38;7.60;;;4.50;;
65753;SDS011;69207;47.502;18.940;2023-07-24T03:27:41;10.43;;;4.68;;
65753;SDS011;69207;47.502;18.940;2023-07-24T03:28:43;7.30;;;4.78;;
65753;SDS011;69207;47.502;18.940;2023-07-24T03:29:46;6.30;;;4.45;;
65753;SDS011;69207;47.502;18.940;2023-07-24T03:30:49;5.75;;;4.10;;
65753;SDS011;69207;47.502;18.940;2023-07-24T03:31:52;6.20;;;4.35;;
65753;SDS011;69207;47.502;18.940;2023-07-24T03:32:55;7.40;;;4.50;;
65753;SDS011;69207;47.502;18.940;2023-07-24T03:33:58;6.62;;;4.22;;
65753;SDS011;69207;47.502;18.940;2023-07-24T03:35:01;5.80;;;4.45;;
65753;SDS011;69207;47.502;18.940;2023-07-24T03:36:03;6.32;;;4.30;;
65753;SDS011;69207;47.502;18.940;2023-07-24T03:37:07;6.60;;;4.82;;
65753;SDS011;69207;47.502;18.940;2023-07-24T03:38:09;7.37;;;4.70;;
65753;SDS011;69207;47.502;18.940;2023-07-24T03:39:12;6.25;;;4.30;;
65753;SDS011;69207;47.502;18.940;2023-07-24T03:40:15;6.70;;;4.40;;
65753;SDS011;69207;47.502;18.940;2023-07-24T03:41:18;5.45;;;4.10;;
65753;SDS011;69207;47.502;18.940;2023-07-24T03:42:24;6.37;;;4.30;;
65753;SDS011;69207;47.502;18.940;2023-07-24T03:43:31;5.82;;;4.50;;
65753;SDS011;69207;47.502;18.940;2023-07-24T03:44:33;5.53;;;4.93;;
65753;SDS011;69207;47.502;18.940;2023-07-24T03:45:36;5.97;;;4.43;;
65753;SDS011;69207;47.502;18.940;2023-07-24T03:46:39;7.78;;;4.28;;
65753;SDS011;69207;47.502;18.940;2023-07-24T03:47:42;9.82;;;4.90;;
65753;SDS011;69207;47.502;18.940;2023-07-24T03:48:45;10.65;;;5.20;;
65753;SDS011;69207;47.502;18.940;2023-07-24T03:49:48;5.25;;;4.32;;
65753;SDS011;69207;47.502;18.940;2023-07-24T03:50:57;5.70;;;3.80;;
65753;SDS011;69207;47.502;18.940;2023-07-24T03:52:02;6.03;;;4.47;;
65753;SDS011;69207;47.502;18.940;2023-07-24T03:53:05;7.87;;;5.12;;
65753;SDS011;69207;47.502;18.940;2023-07-24T03:54:07;5.90;;;4.70;;
65753;SDS011;69207;47.502;18.940;2023-07-24T03:55:10;6.10;;;4.62;;
65753;SDS011;69207;47.502;18.940;2023-07-24T03:56:13;7.78;;;5.10;;
65753;SDS011;69207;47.502;18.940;2023-07-24T03:57:16;7.05;;;4.55;;
65753;SDS011;69207;47.502;18.940;2023-07-24T03:58:19;6.25;;;4.47;;
65753;SDS011;69207;47.502;18.940;2023-07-24T03:59:22;6.20;;;4.30;;
65753;SDS011;69207;47.502;18.940;2023-07-24T04:00:24;6.65;;;4.43;;
65753;SDS011;69207;47.502;18.940;2023-07-24T04:01:27;6.78;;;4.30;;
65753;SDS011;69207;47.502;18.940;2023-07-24T04:02:30;8.00;;;4.53;;
65753;SDS011;69207;47.502;18.940;2023-07-24T04:03:33;6.32;;;4.57;;
65753;SDS011;69207;47.502;18.940;2023-07-24T04:04:36;6.12;;;4.15;;
65753;SDS011;69207;47.502;18.940;2023-07-24T04:05:40;10.52;;;4.75;;
65753;SDS011;69207;47.502;18.940;2023-07-24T04:06:42;7.70;;;4.80;;
65753;SDS011;69207;47.502;18.940;2023-07-24T04:07:45;7.57;;;4.53;;
65753;SDS011;69207;47.502;18.940;2023-07-24T04:08:48;5.93;;;4.47;;
65753;SDS011;69207;47.502;18.940;2023-07-24T04:09:51;7.05;;;4.82;;
65753;SDS011;69207;47.502;18.940;2023-07-24T04:10:53;7.60;;;4.05;;
65753;SDS011;69207;47.502;18.940;2023-07-24T04:11:58;7.43;;;4.37;;
65753;SDS011;69207;47.502;18.940;2023-07-24T04:13:01;7.80;;;4.60;;
65753;SDS011;69207;47.502;18.940;2023-07-24T04:14:04;5.78;;;4.47;;
65753;SDS011;69207;47.502;18.940;2023-07-24T04:15:07;11.07;;;4.50;;
65753;SDS011;69207;47.502;18.940;2023-07-24T04:16:10;6.75;;;4.82;;
65753;SDS011;69207;47.502;18.940;2023-07-24T04:17:12;6.15;;;4.60;;
65753;SDS011;69207;47.502;18.940;2023-07-24T04:18:15;8.70;;;4.93;;
65753;SDS011;69207;47.502;18.940;2023-07-24T04:19:18;5.00;;;4.35;;
65753;SDS011;69207;47.502;18.940;2023-07-24T04:20:20;6.57;;;4.50;;
65753;SDS011;69207;47.502;18.940;2023-07-24T04:21:23;6.78;;;4.62;;
65753;SDS011;69207;47.502;18.940;2023-07-24T04:22:26;9.45;;;5.15;;
65753;SDS011;69207;47.502;18.940;2023-07-24T04:23:29;8.23;;;5.20;;
65753;SDS011;69207;47.502;18.940;2023-07-24T04:24:32;7.05;;;5.75;;
65753;SDS011;69207;47.502;18.940;2023-07-24T04:25:35;6.85;;;4.90;;
65753;SDS011;69207;47.502;18.940;2023-07-24T04:26:37;6.35;;;4.90;;
65753;SDS011;69207;47.502;18.940;2023-07-24T04:27:42;8.68;;;5.37;;
65753;SDS011;69207;47.502;18.940;2023-07-24T04:28:45;9.20;;;5.55;;
65753;SDS011;69207;47.502;18.940;2023-07-24T04:29:47;7.75;;;5.25;;
65753;SDS011;69207;47.502;18.940;2023-07-24T04:30:50;6.80;;;5.43;;
65753;SDS011;69207;47.502;18.940;2023-07-24T04:31:53;6.28;;;4.72;;
65753;SDS011;69207;47.502;18.940;2023-07-24T04:32:56;7.18;;;5.00;;
65753;SDS011;69207;47.502;18.940;2023-07-24T04:33:58;6.15;;;5.10;;
65753;SDS011;69207;47.502;18.940;2023-07-24T04:35:01;6.45;;;4.78;;
65753;SDS011;69207;47.502;18.940;2023-07-24T04:36:04;6.50;;;4.87;;
65753;SDS011;69207;47.502;18.940;2023-07-24T04:37:07;7.20;;;5.10;;
65753;SDS011;69207;47.502;18.940;2023-07-24T04:38:10;5.45;;;4.60;;
65753;SDS011;69207;47.502;18.940;2023-07-24T04:39:13;7.32;;;5.10;;
65753;SDS011;69207;47.502;18.940;2023-07-24T04:40:16;9.40;;;4.95;;
65753;SDS011;69207;47.502;18.940;2023-07-24T04:41:19;5.35;;;4.57;;
65753;SDS011;69207;47.502;18.940;2023-07-24T04:42:21;10.82;;;4.72;;
65753;SDS011;69207;47.502;18.940;2023-07-24T04:43:24;7.35;;;5.10;;
65753;SDS011;69207;47.502;18.940;2023-07-24T04:44:27;6.35;;;4.68;;
65753;SDS011;69207;47.502;18.940;2023-07-24T04:45:29;6.30;;;4.90;;
65753;SDS011;69207;47.502;18.940;2023-07-24T04:46:32;6.15;;;4.90;;
65753;SDS011;69207;47.502;18.940;2023-07-24T04:47:36;6.05;;;5.07;;
65753;SDS011;69207;47.502;18.940;2023-07-24T04:48:40;6.03;;;4.70;;
65753;SDS011;69207;47.502;18.940;2023-07-24T04:49:43;7.25;;;4.72;;
65753;SDS011;69207;47.502;18.940;2023-07-24T04:50:46;8.20;;;4.55;;
65753;SDS011;69207;47.502;18.940;2023-07-24T04:51:48;9.35;;;5.32;;
65753;SDS011;69207;47.502;18.940;2023-07-24T04:52:51;7.18;;;4.50;;
65753;SDS011;69207;47.502;18.940;2023-07-24T04:53:54;5.65;;;4.32;;
65753;SDS011;69207;47.502;18.940;2023-07-24T04:54:56;7.87;;;5.10;;
65753;SDS011;69207;47.502;18.940;2023-07-24T04:55:59;10.85;;;5.50;;
65753;SDS011;69207;47.502;18.940;2023-07-24T04:57:02;7.85;;;5.25;;
65753;SDS011;69207;47.502;18.940;2023-07-24T04:58:05;7.07;;;4.95;;
65753;SDS011;69207;47.502;18.940;2023-07-24T04:59:08;9.60;;;5.78;;
65753;SDS011;69207;47.502;18.940;2023-07-24T05:00:11;7.75;;;5.43;;
65753;SDS011;69207;47.502;18.940;2023-07-24T05:01:14;8.98;;;6.03;;
65753;SDS011;69207;47.502;18.940;2023-07-24T05:02:16;6.43;;;5.18;;
65753;SDS011;69207;47.502;18.940;2023-07-24T05:03:19;6.82;;;5.03;;
65753;SDS011;69207;47.502;18.940;2023-07-24T05:04:22;10.18;;;5.60;;
65753;SDS011;69207;47.502;18.940;2023-07-24T05:05:25;9.63;;;5.75;;
65753;SDS011;69207;47.502;18.940;2023-07-24T05:06:28;6.95;;;5.50;;
65753;SDS011;69207;47.502;18.940;2023-07-24T05:07:31;6.87;;;5.75;;
65753;SDS011;69207;47.502;18.940;2023-07-24T05:08:34;11.02;;;5.82;;
65753;SDS011;69207;47.502;18.940;2023-07-24T05:09:37;7.57;;;5.53;;
65753;SDS011;69207;47.502;18.940;2023-07-24T05:10:40;9.98;;;6.62;;
65753;SDS011;69207;47.502;18.940;2023-07-24T05:11:43;8.43;;;5.72;;
65753;SDS011;69207;47.502;18.940;2023-07-24T05:12:47;8.55;;;6.10;;
65753;SDS011;69207;47.502;18.940;2023-07-24T05:13:49;10.68;;;5.80;;
65753;SDS011;69207;47.502;18.940;2023-07-24T05:14:52;10.52;;;5.90;;
65753;SDS011;69207;47.502;18.940;2023-07-24T05:15:55;6.78;;;5.32;;
65753;SDS011;69207;47.502;18.940;2023-07-24T05:16:58;8.23;;;5.43;;
65753;SDS011;69207;47.502;18.940;2023-07-24T05:18:00;7.93;;;5.82;;
65753;SDS011;69207;47.502;18.940;2023-07-24T05:19:03;10.10;;;6.00;;
65753;SDS011;69207;47.502;18.940;2023-07-24T05:20:06;9.82;;;6.25;;
65753;SDS011;69207;47.502;18.940;2023-07-24T05:21:10;9.90;;;6.18;;
65753;SDS011;69207;47.502;18.940;2023-07-24T05:22:13;7.97;;;6.10;;
65753;SDS011;69207;47.502;18.940;2023-07-24T05:23:16;8.07;;;5.68;;
65753;SDS011;69207;47.502;18.940;2023-07-24T05:24:18;8.43;;;6.47;;
65753;SDS011;69207;47.502;18.940;2023-07-24T05:25:21;8.40;;;5.90;;
65753;SDS011;69207;47.502;18.940;2023-07-24T05:26:24;8.40;;;6.30;;
65753;SDS011;69207;47.502;18.940;2023-07-24T05:27:27;10.05;;;5.95;;
65753;SDS011;69207;47.502;18.940;2023-07-24T05:28:30;10.48;;;6.30;;
65753;SDS011;69207;47.502;18.940;2023-07-24T05:29:33;8.65;;;5.95;;
65753;SDS011;69207;47.502;18.940;2023-07-24T05:30:36;7.95;;;5.35;;
65753;SDS011;69207;47.502;18.940;2023-07-24T05:31:39;8.57;;;6.40;;
65753;SDS011;69207;47.502;18.940;2023-07-24T05:32:42;12.10;;;6.18;;
65753;SDS011;69207;47.502;18.940;2023-07-24T05:33:44;9.10;;;5.57;;
65753;SDS011;69207;47.502;18.940;2023-07-24T05:34:48;12.45;;;6.47;;
65753;SDS011;69207;47.502;18.940;2023-07-24T05:35:51;12.32;;;6.25;;
65753;SDS011;69207;47.502;18.940;2023-07-24T05:36:54;9.80;;;6.00;;
65753;SDS011;69207;47.502;18.940;2023-07-24T05:37:56;9.30;;;5.70;;
65753;SDS011;69207;47.502;18.940;2023-07-24T05:38:59;7.12;;;5.53;;
65753;SDS011;69207;47.502;18.940;2023-07-24T05:40:02;8.10;;;6.00;;
65753;SDS011;69207;47.502;18.940;2023-07-24T05:41:05;9.73;;;6.15;;
65753;SDS011;69207;47.502;18.940;2023-07-24T05:42:08;11.23;;;6.20;;
65753;SDS011;69207;47.502;18.940;2023-07-24T05:43:11;10.82;;;6.32;;
65753;SDS011;69207;47.502;18.940;2023-07-24T05:44:13;6.55;;;5.12;;
65753;SDS011;69207;47.502;18.940;2023-07-24T05:45:16;9.45;;;6.40;;
65753;SDS011;69207;47.502;18.940;2023-07-24T05:46:19;7.95;;;6.20;;
65753;SDS011;69207;47.502;18.940;2023-07-24T05:47:22;8.85;;;6.05;;
65753;SDS011;69207;47.502;18.940;2023-07-24T05:48:25;7.30;;;5.95;;
65753;SDS011;69207;47.502;18.940;2023-07-24T05:49:27;9.77;;;5.85;;
65753;SDS011;69207;47.502;18.940;2023-07-24T05:50:30;9.07;;;5.93;;
65753;SDS011;69207;47.502;18.940;2023-07-24T05:51:34;7.78;;;5.55;;
65753;SDS011;69207;47.502;18.940;2023-07-24T05:52:36;9.07;;;5.85;;
65753;SDS011;69207;47.502;18.940;2023-07-24T05:53:39;11.93;;;5.60;;
65753;SDS011;69207;47.502;18.940;2023-07-24T05:54:42;11.82;;;6.65;;
65753;SDS011;69207;47.502;18.940;2023-07-24T05:55:45;6.68;;;5.50;;
65753;SDS011;69207;47.502;18.940;2023-07-24T05:56:47;8.55;;;5.60;;
65753;SDS011;69207;47.502;18.940;2023-07-24T05:57:50;8.52;;;6.15;;
65753;SDS011;69207;47.502;18.940;2023-07-24T05:58:53;7.12;;;6.10;;
65753;SDS011;69207;47.502;18.940;2023-07-24T05:59:56;7.75;;;5.65;;
65753;SDS011;69207;47.502;18.940;2023-07-24T06:00:59;10.77;;;5.60;;
65753;SDS011;69207;47.502;18.940;2023-07-24T06:02:02;10.50;;;6.00;;
65753;SDS011;69207;47.502;18.940;2023-07-24T06:03:05;7.75;;;6.12;;
65753;SDS011;69207;47.502;18.940;2023-07-24T06:04:10;8.77;;;5.80;;
65753;SDS011;69207;47.502;18.940;2023-07-24T06:05:13;7.28;;;5.97;;
65753;SDS011;69207;47.502;18.940;2023-07-24T06:06:16;8.07;;;6.20;;
65753;SDS011;69207;47.502;18.940;2023-07-24T06:07:19;8.15;;;5.47;;
65753;SDS011;69207;47.502;18.940;2023-07-24T06:08:21;10.55;;;6.03;;
65753;SDS011;69207;47.502;18.940;2023-07-24T06:09:25;11.23;;;6.32;;
65753;SDS011;69207;47.502;18.940;2023-07-24T06:10:27;9.07;;;6.32;;
65753;SDS011;69207;47.502;18.940;2023-07-24T06:11:30;11.82;;;6.75;;
65753;SDS011;69207;47.502;18.940;2023-07-24T06:12:33;12.40;;;5.90;;
65753;SDS011;69207;47.502;18.940;2023-07-24T06:13:36;7.30;;;5.75;;
65753;SDS011;69207;47.502;18.940;2023-07-24T06:14:39;7.37;;;6.12;;
65753;SDS011;69207;47.502;18.940;2023-07-24T06:15:42;8.75;;;6.25;;
65753;SDS011;69207;47.502;18.940;2023-07-24T06:16:44;7.90;;;5.87;;
65753;SDS011;69207;47.502;18.940;2023-07-24T06:17:47;10.15;;;6.60;;
65753;SDS011;69207;47.502;18.940;2023-07-24T06:18:55;12.18;;;6.03;;
65753;SDS011;69207;47.502;18.940;2023-07-24T06:19:58;9.18;;;6.03;;
65753;SDS011;69207;47.502;18.940;2023-07-24T06:21:01;8.77;;;5.95;;
65753;SDS011;69207;47.502;18.940;2023-07-24T06:22:04;8.55;;;6.00;;